createdAt,value
2023-06-12T00:01:20.987Z,8.13
2023-06-12T00:03:48.890Z,8.73
2023-06-12T00:06:17.485Z,6.93
2023-06-12T00:08:44.701Z,6.85
2023-06-12T00:11:14.471Z,6.20
2023-06-12T00:13:48.310Z,7.05
2023-06-12T00:16:14.983Z,7.78
2023-06-12T00:18:41.528Z,8.25
2023-06-12T00:21:10.092Z,7.57
2023-06-12T00:23:40.411Z,7.88
2023-06-12T00:26:06.982Z,7.82
2023-06-12T00:28:33.565Z,7.72
2023-06-12T00:31:00.205Z,7.75
2023-06-12T00:33:27.155Z,8.02
2023-06-12T00:35:53.623Z,8.00
2023-06-12T00:38:22.054Z,7.57
2023-06-12T00:40:49.438Z,8.05
2023-06-12T00:43:16.442Z,8.65
2023-06-12T00:45:43.561Z,6.97
2023-06-12T00:48:12.671Z,7.65
2023-06-12T00:50:41.081Z,7.43
2023-06-12T00:53:08.495Z,8.13
2023-06-12T00:55:35.500Z,8.13
2023-06-12T00:58:02.981Z,8.50
2023-06-12T01:00:32.646Z,8.88
2023-06-12T01:03:06.933Z,8.48
2023-06-12T01:05:43.843Z,8.25
2023-06-12T01:08:16.877Z,9.18
2023-06-12T01:11:06.682Z,9.10
2023-06-12T01:13:34.251Z,9.63
2023-06-12T01:16:01.252Z,9.07
2023-06-12T01:18:27.990Z,10.27
2023-06-12T01:20:58.859Z,10.75
2023-06-12T01:23:37.365Z,9.43
2023-06-12T01:26:27.150Z,9.00
2023-06-12T01:29:37.054Z,9.45
2023-06-12T01:32:09.410Z,8.95
2023-06-12T01:34:52.204Z,9.75
2023-06-12T01:37:32.764Z,9.57
2023-06-12T01:40:00.821Z,9.57
2023-06-12T01:42:29.382Z,9.57
2023-06-12T01:44:55.967Z,11.70
2023-06-12T01:47:23.477Z,9.13
2023-06-12T01:49:49.957Z,10.50
2023-06-12T01:52:16.531Z,9.63
2023-06-12T01:54:46.183Z,9.70
2023-06-12T01:57:13.065Z,9.95
2023-06-12T01:59:39.913Z,9.65
2023-06-12T02:02:06.950Z,10.98
2023-06-12T02:04:33.746Z,10.20
2023-06-12T02:07:00.212Z,9.52
2023-06-12T02:09:29.554Z,9.80
2023-06-12T02:11:56.019Z,9.60
2023-06-12T02:14:24.680Z,10.02
2023-06-12T02:16:54.927Z,9.88
2023-06-12T02:19:29.666Z,9.70
2023-06-12T02:21:57.364Z,9.95
2023-06-12T02:24:27.506Z,10.25
2023-06-12T02:26:54.162Z,8.90
2023-06-12T02:29:20.643Z,9.98
2023-06-12T02:31:47.050Z,9.82
2023-06-12T02:34:13.746Z,9.85
2023-06-12T02:36:41.982Z,9.82
2023-06-12T02:39:09.423Z,11.02
2023-06-12T02:41:39.514Z,10.90
2023-06-12T02:44:05.962Z,10.32
2023-06-12T02:46:32.466Z,9.85
2023-06-12T02:48:58.984Z,10.10
2023-06-12T02:51:28.147Z,10.30
2023-06-12T02:53:54.817Z,11.02
2023-06-12T02:56:21.267Z,10.20
2023-06-12T02:58:50.138Z,10.07
2023-06-12T03:01:17.934Z,9.90
2023-06-12T03:03:45.128Z,11.00
2023-06-12T03:06:13.036Z,12.20
2023-06-12T03:08:40.443Z,10.82
2023-06-12T03:11:07.410Z,10.82
2023-06-12T03:13:33.911Z,10.65
2023-06-12T03:16:01.361Z,12.05
2023-06-12T03:18:27.965Z,10.80
2023-06-12T03:20:54.733Z,11.55
2023-06-12T03:23:21.128Z,11.85
2023-06-12T03:25:48.705Z,11.30
2023-06-12T03:28:15.193Z,11.88
2023-06-12T03:30:41.568Z,10.40
2023-06-12T03:33:08.360Z,11.68
2023-06-12T03:35:34.991Z,12.23
2023-06-12T03:38:01.436Z,10.98
2023-06-12T03:40:28.073Z,11.77
2023-06-12T03:42:54.650Z,12.02
2023-06-12T03:45:21.190Z,13.13
2023-06-12T03:47:47.786Z,12.57
2023-06-12T03:50:14.952Z,12.15
2023-06-12T03:52:41.789Z,11.25
2023-06-12T03:55:08.653Z,11.35
2023-06-12T03:57:35.548Z,13.30
2023-06-12T04:00:01.969Z,11.77
2023-06-12T04:02:28.638Z,11.88
2023-06-12T04:04:55.532Z,11.25
2023-06-12T04:07:22.203Z,13.18
2023-06-12T04:09:48.770Z,11.60
2023-06-12T04:12:15.252Z,11.90
2023-06-12T04:14:42.058Z,11.13
2023-06-12T04:17:08.595Z,11.38
2023-06-12T04:19:37.345Z,11.05
2023-06-12T04:22:04.469Z,35.40
2023-06-12T04:24:32.273Z,11.85
2023-06-12T04:27:02.787Z,11.68
2023-06-12T04:29:30.232Z,12.93
2023-06-12T04:31:57.719Z,11.65
2023-06-12T04:34:25.395Z,11.88
2023-06-12T04:36:53.753Z,10.07
2023-06-12T04:39:20.599Z,11.82
2023-06-12T04:41:48.510Z,11.30
2023-06-12T04:44:15.302Z,11.82
2023-06-12T04:46:42.011Z,10.30
2023-06-12T04:49:09.850Z,9.30
2023-06-12T04:51:36.565Z,9.77
2023-06-12T04:54:06.116Z,8.20
2023-06-12T04:56:32.871Z,8.98
2023-06-12T04:59:00.052Z,18.20
2023-06-12T05:01:26.878Z,11.50
2023-06-12T05:03:53.942Z,9.93
2023-06-12T05:06:24.009Z,9.48
2023-06-12T05:08:50.410Z,8.73
2023-06-12T05:11:17.651Z,8.48
2023-06-12T05:13:47.334Z,8.60
2023-06-12T05:16:14.086Z,8.77
2023-06-12T05:18:40.594Z,13.65
2023-06-12T05:21:07.842Z,7.90
2023-06-12T05:23:34.441Z,8.50
2023-06-12T05:26:00.942Z,8.15
2023-06-12T05:28:27.503Z,8.07
2023-06-12T05:30:54.046Z,7.75
2023-06-12T05:33:21.553Z,7.50
2023-06-12T05:35:50.768Z,8.73
2023-06-12T05:38:17.540Z,7.55
2023-06-12T05:40:44.263Z,7.90
2023-06-12T05:43:11.046Z,14.43
2023-06-12T05:45:37.627Z,8.98
2023-06-12T05:48:04.472Z,6.95
2023-06-12T05:50:31.121Z,17.35
2023-06-12T05:52:57.876Z,6.35
2023-06-12T05:55:24.669Z,7.20
2023-06-12T05:57:53.744Z,6.40
2023-06-12T06:00:22.235Z,6.20
2023-06-12T06:02:48.767Z,6.90
2023-06-12T06:05:15.927Z,5.85
2023-06-12T06:07:42.653Z,11.68
2023-06-12T06:10:09.312Z,8.55
2023-06-12T06:12:38.849Z,5.82
2023-06-12T06:15:06.455Z,9.25
2023-06-12T06:17:33.249Z,5.95
2023-06-12T06:19:59.760Z,5.85
2023-06-12T06:22:26.345Z,7.28
2023-06-12T06:24:53.558Z,6.40
2023-06-12T06:27:20.060Z,6.00
2023-06-12T06:29:46.586Z,7.70
2023-06-12T06:32:13.112Z,8.75
2023-06-12T06:34:39.528Z,13.32
2023-06-12T06:37:06.036Z,17.00
2023-06-12T06:39:32.820Z,9.25
2023-06-12T06:41:59.263Z,6.50
2023-06-12T06:44:25.770Z,6.72
2023-06-12T06:46:52.332Z,5.63
2023-06-12T06:49:18.838Z,5.93
2023-06-12T06:51:45.377Z,5.15
2023-06-12T06:54:11.913Z,5.50
2023-06-12T06:56:38.539Z,4.88
2023-06-12T06:59:05.089Z,5.13
2023-06-12T07:01:34.345Z,4.93
2023-06-12T07:04:01.097Z,5.50
2023-06-12T07:06:27.843Z,5.28
2023-06-12T07:08:55.304Z,5.32
2023-06-12T07:11:21.976Z,5.25
2023-06-12T07:13:54.029Z,5.00
2023-06-12T07:16:20.913Z,4.88
2023-06-12T07:18:47.285Z,5.82
2023-06-12T07:21:15.355Z,5.88
2023-06-12T07:23:44.862Z,5.72
2023-06-12T07:28:44.959Z,5.22
2023-06-12T07:31:11.578Z,7.95
2023-06-12T07:33:40.498Z,7.82
2023-06-12T07:36:06.963Z,5.38
2023-06-12T07:38:33.493Z,8.43
2023-06-12T07:40:59.993Z,14.93
2023-06-12T07:43:26.764Z,7.47
2023-06-12T07:45:53.225Z,5.25
2023-06-12T07:48:19.806Z,6.55
2023-06-12T07:50:46.470Z,5.10
2023-06-12T07:53:28.103Z,5.30
2023-06-12T07:55:59.516Z,6.10
2023-06-12T07:58:29.154Z,5.07
2023-06-12T08:00:58.075Z,4.82
2023-06-12T08:03:31.325Z,5.63
2023-06-12T08:05:58.563Z,5.80
2023-06-12T08:08:25.658Z,4.93
2023-06-12T08:10:52.271Z,5.22
2023-06-12T08:13:18.943Z,5.00
2023-06-12T08:15:45.623Z,5.13
2023-06-12T08:18:12.323Z,5.20
2023-06-12T08:20:39.491Z,4.80
2023-06-12T08:23:06.241Z,6.07
2023-06-12T08:25:34.117Z,6.55
2023-06-12T08:28:03.669Z,11.48
2023-06-12T08:30:30.564Z,5.25
2023-06-12T08:32:57.461Z,5.57
2023-06-12T08:35:24.169Z,5.82
2023-06-12T08:37:50.857Z,5.38
2023-06-12T08:40:17.415Z,5.78
2023-06-12T08:42:51.646Z,5.60
2023-06-12T08:45:22.445Z,5.28
2023-06-12T08:47:50.488Z,5.72
2023-06-12T08:50:21.005Z,4.90
2023-06-12T08:52:54.246Z,5.20
2023-06-12T08:55:22.483Z,5.35
2023-06-12T08:57:49.014Z,6.35
2023-06-12T09:00:16.680Z,6.63
2023-06-12T09:02:53.134Z,5.30
2023-06-12T09:05:39.154Z,5.65
2023-06-12T09:08:06.914Z,7.72
2023-06-12T09:10:35.852Z,5.38
2023-06-12T09:13:07.683Z,5.63
2023-06-12T09:15:34.330Z,6.03
2023-06-12T09:18:00.838Z,5.82
2023-06-12T09:23:06.623Z,6.45
2023-06-12T09:25:49.917Z,5.43
2023-06-12T09:28:28.265Z,6.53
2023-06-12T09:30:58.035Z,6.38
2023-06-12T09:33:28.902Z,7.57
2023-06-12T09:35:55.629Z,6.25
2023-06-12T09:38:33.017Z,6.00
2023-06-12T09:41:01.372Z,5.90
2023-06-12T09:43:31.699Z,5.60
2023-06-12T09:45:58.856Z,6.07
2023-06-12T09:48:38.027Z,6.18
2023-06-12T09:51:17.385Z,6.18
2023-06-12T09:53:46.595Z,6.57
2023-06-12T09:56:13.433Z,6.07
2023-06-12T09:58:49.012Z,5.90
2023-06-12T10:01:19.044Z,5.65
2023-06-12T10:03:48.926Z,5.60
2023-06-12T10:06:20.280Z,6.25
2023-06-12T10:08:49.367Z,6.35
2023-06-12T10:11:16.966Z,6.15
2023-06-12T10:13:44.348Z,6.55
2023-06-12T10:16:13.188Z,5.85
2023-06-12T10:18:41.113Z,6.70
2023-06-12T10:21:08.176Z,5.53
2023-06-12T10:23:39.460Z,5.43
2023-06-12T10:26:06.636Z,5.75
2023-06-12T10:28:33.444Z,6.15
2023-06-12T10:31:17.483Z,8.77
2023-06-12T10:34:02.177Z,17.67
2023-06-12T10:36:41.585Z,7.13
2023-06-12T10:39:15.911Z,5.75
2023-06-12T10:41:53.655Z,5.85
2023-06-12T10:44:38.594Z,6.22
2023-06-12T10:47:06.144Z,6.18
2023-06-12T10:50:01.296Z,8.82
2023-06-12T10:52:28.510Z,6.57
2023-06-12T10:55:15.974Z,6.13
2023-06-12T10:58:13.034Z,5.40
2023-06-12T11:00:49.585Z,6.05
2023-06-12T11:03:27.831Z,5.80
2023-06-12T11:05:57.008Z,6.60
2023-06-12T11:08:28.550Z,6.15
2023-06-12T11:10:55.491Z,5.82
2023-06-12T11:13:27.011Z,6.00
2023-06-12T11:15:54.805Z,6.43
2023-06-12T11:18:23.230Z,6.00
2023-06-12T11:23:28.166Z,6.38
2023-06-12T11:25:56.674Z,6.43
2023-06-12T11:33:25.541Z,6.28
2023-06-12T11:36:07.331Z,6.20
2023-06-12T11:41:04.580Z,6.70
2023-06-12T11:43:31.840Z,5.63
2023-06-12T11:46:03.558Z,6.40
2023-06-12T11:51:02.530Z,6.38
2023-06-12T11:53:31.491Z,6.10
2023-06-12T11:58:43.161Z,6.28
2023-06-12T12:01:23.642Z,6.55
2023-06-12T12:03:55.352Z,6.70
2023-06-12T12:06:24.181Z,6.60
2023-06-12T12:08:56.446Z,6.40
2023-06-12T12:11:24.319Z,7.28
2023-06-12T12:13:52.487Z,6.85
2023-06-12T12:16:25.193Z,6.65
2023-06-12T12:18:52.819Z,6.50
2023-06-12T12:21:19.772Z,6.82
2023-06-12T12:23:46.867Z,7.40
2023-06-12T12:26:15.800Z,6.03
2023-06-12T12:28:43.309Z,8.32
2023-06-12T12:31:09.891Z,6.50
2023-06-12T12:33:37.656Z,6.70
2023-06-12T12:36:04.312Z,7.50
2023-06-12T12:38:30.703Z,6.45
2023-06-12T12:40:57.260Z,10.82
2023-06-12T12:43:24.111Z,6.53
2023-06-12T12:45:51.754Z,6.20
2023-06-12T12:48:18.994Z,10.10
2023-06-12T12:51:02.141Z,6.00
2023-06-12T12:53:32.066Z,6.10
2023-06-12T12:55:58.628Z,6.40
2023-06-12T12:58:25.881Z,5.93
2023-06-12T13:00:52.408Z,5.95
2023-06-12T13:03:19.583Z,6.53
2023-06-12T13:05:46.791Z,5.97
2023-06-12T13:08:13.228Z,5.68
2023-06-12T13:10:39.588Z,6.00
2023-06-12T13:13:06.024Z,5.90
2023-06-12T13:15:32.444Z,5.75
2023-06-12T13:17:59.156Z,5.53
2023-06-12T13:20:28.807Z,5.85
2023-06-12T13:22:56.074Z,5.20
2023-06-12T13:25:22.662Z,5.88
2023-06-12T13:27:49.332Z,5.43
2023-06-12T13:30:16.661Z,5.25
2023-06-12T13:32:43.294Z,9.63
2023-06-12T13:35:10.418Z,5.60
2023-06-12T13:37:41.082Z,5.20
2023-06-12T13:40:13.769Z,8.93
2023-06-12T13:42:40.722Z,5.25
2023-06-12T13:45:07.816Z,4.97
2023-06-12T13:47:37.828Z,5.22
2023-06-12T13:50:07.634Z,5.00
2023-06-12T13:52:34.093Z,5.43
2023-06-12T13:55:00.759Z,5.15
2023-06-12T13:57:27.240Z,6.10
2023-06-12T13:59:54.170Z,5.60
2023-06-12T14:02:20.748Z,6.32
2023-06-12T14:04:50.928Z,5.22
2023-06-12T14:07:17.916Z,4.82
2023-06-12T14:09:44.902Z,5.35
2023-06-12T14:12:13.452Z,5.43
2023-06-12T14:14:40.095Z,5.05
2023-06-12T14:17:11.341Z,5.30
2023-06-12T14:19:38.002Z,5.60
2023-06-12T14:22:04.809Z,5.65
2023-06-12T14:24:37.561Z,5.45
2023-06-12T14:27:05.115Z,5.63
2023-06-12T14:29:31.509Z,5.47
2023-06-12T14:31:58.024Z,5.25
2023-06-12T14:34:24.529Z,8.75
2023-06-12T14:36:51.326Z,5.70
2023-06-12T14:39:18.223Z,6.72
2023-06-12T14:41:44.587Z,5.90
2023-06-12T14:44:12.880Z,5.38
2023-06-12T14:46:43.744Z,5.60
2023-06-12T14:49:10.686Z,5.35
2023-06-12T14:51:37.418Z,4.85
2023-06-12T14:54:03.908Z,5.13
2023-06-12T14:56:30.533Z,5.93
2023-06-12T14:58:57.000Z,5.20
2023-06-12T15:01:23.663Z,5.45
2023-06-12T15:03:51.701Z,5.50
2023-06-12T15:06:18.349Z,5.28
2023-06-12T15:08:46.662Z,5.90
2023-06-12T15:11:13.680Z,5.93
2023-06-12T15:13:40.356Z,5.07
2023-06-12T15:16:07.437Z,5.53
2023-06-12T15:21:06.045Z,5.55
2023-06-12T15:23:32.773Z,5.60
2023-06-12T15:25:59.779Z,5.72
2023-06-12T15:28:26.509Z,5.65
2023-06-12T15:30:53.088Z,5.32
2023-06-12T15:33:19.599Z,6.22
2023-06-12T15:35:46.407Z,7.45
2023-06-12T15:38:37.514Z,5.40
2023-06-12T15:41:05.863Z,5.90
2023-06-12T15:45:59.854Z,5.63
2023-06-12T15:48:27.223Z,5.45
2023-06-12T15:50:54.987Z,6.10
2023-06-12T15:53:21.783Z,4.65
2023-06-12T15:55:49.629Z,4.97
2023-06-12T15:58:16.533Z,5.47
2023-06-12T16:00:43.200Z,5.18
2023-06-12T16:03:10.383Z,4.70
2023-06-12T16:05:39.631Z,4.90
2023-06-12T16:08:07.011Z,6.22
2023-06-12T16:10:33.627Z,5.68
2023-06-12T16:13:00.388Z,4.70
2023-06-12T16:15:27.098Z,5.60
2023-06-12T16:17:53.535Z,4.78
2023-06-12T16:20:20.304Z,5.18
2023-06-12T16:22:46.778Z,6.20
2023-06-12T16:25:13.962Z,5.13
2023-06-12T16:27:43.581Z,4.90
2023-06-12T16:30:10.452Z,5.40
2023-06-12T16:32:37.030Z,4.68
2023-06-12T16:35:04.005Z,5.05
2023-06-12T16:37:30.505Z,5.05
2023-06-12T16:40:09.255Z,4.82
2023-06-12T16:42:36.617Z,4.65
2023-06-12T16:45:04.506Z,4.90
2023-06-12T16:47:31.483Z,4.97
2023-06-12T16:50:00.680Z,5.18
2023-06-12T16:52:28.594Z,5.18
2023-06-12T16:54:55.966Z,5.43
2023-06-12T16:57:22.961Z,7.15
2023-06-12T16:59:52.254Z,5.00
2023-06-12T17:02:19.657Z,5.03
2023-06-12T17:04:46.849Z,5.18
2023-06-12T17:07:13.566Z,4.63
2023-06-12T17:09:40.777Z,5.10
2023-06-12T17:12:07.580Z,4.78
2023-06-12T17:14:37.787Z,5.18
2023-06-12T17:17:05.835Z,5.03
2023-06-12T17:19:32.283Z,5.35
2023-06-12T17:21:58.839Z,5.38
2023-06-12T17:24:25.676Z,5.38
2023-06-12T17:26:52.503Z,6.63
2023-06-12T17:29:18.935Z,7.07
2023-06-12T17:31:45.604Z,5.43
2023-06-12T17:34:12.028Z,5.32
2023-06-12T17:36:41.158Z,5.60
2023-06-12T17:39:08.737Z,5.13
2023-06-12T17:41:37.286Z,4.95
2023-06-12T17:44:06.332Z,5.13
2023-06-12T17:46:32.989Z,5.70
2023-06-12T17:49:00.003Z,5.55
2023-06-12T17:51:26.878Z,5.65
2023-06-12T17:53:53.970Z,7.63
2023-06-12T17:56:24.385Z,5.25
2023-06-12T17:58:51.727Z,4.97
2023-06-12T18:01:18.623Z,5.55
2023-06-12T18:03:45.847Z,6.75
2023-06-12T18:06:12.303Z,5.63
2023-06-12T18:08:38.854Z,5.78
2023-06-12T18:11:05.723Z,6.05
2023-06-12T18:13:32.964Z,5.25
2023-06-12T18:16:00.212Z,5.38
2023-06-12T18:18:26.794Z,5.50
2023-06-12T18:20:53.513Z,5.75
2023-06-12T18:23:20.419Z,5.30
2023-06-12T18:25:47.152Z,5.90
2023-06-12T18:28:16.165Z,5.82
2023-06-12T18:30:42.857Z,5.82
2023-06-12T18:33:09.559Z,5.82
2023-06-12T18:35:37.001Z,6.53
2023-06-12T18:38:03.573Z,5.40
2023-06-12T18:40:30.042Z,5.35
2023-06-12T18:42:56.442Z,5.90
2023-06-12T18:45:22.815Z,5.57
2023-06-12T18:47:49.464Z,4.68
2023-06-12T18:50:16.015Z,6.32
2023-06-12T18:52:42.455Z,7.00
2023-06-12T18:55:09.096Z,5.65
2023-06-12T18:57:35.747Z,5.38
2023-06-12T19:00:02.434Z,5.80
2023-06-12T19:02:28.938Z,5.65
2023-06-12T19:04:55.392Z,7.57
2023-06-12T19:07:21.833Z,6.90
2023-06-12T19:09:48.359Z,7.75
2023-06-12T19:12:14.858Z,9.55
2023-06-12T19:14:41.289Z,5.78
2023-06-12T19:17:08.442Z,8.10
2023-06-12T19:19:34.902Z,7.63
2023-06-12T19:22:01.362Z,5.50
2023-06-12T19:24:27.775Z,5.57
2023-06-12T19:26:54.257Z,7.35
2023-06-12T19:29:21.334Z,6.47
2023-06-12T19:31:48.136Z,6.30
2023-06-12T19:34:14.681Z,5.80
2023-06-12T19:36:41.233Z,7.10
2023-06-12T19:39:07.702Z,6.35
2023-06-12T19:41:34.255Z,7.95
2023-06-12T19:44:00.627Z,6.15
2023-06-12T19:46:27.659Z,6.13
2023-06-12T19:48:54.233Z,6.15
2023-06-12T19:51:21.754Z,6.18
2023-06-12T19:53:48.195Z,7.05
2023-06-12T19:56:14.633Z,6.57
2023-06-12T19:58:41.019Z,6.90
2023-06-12T20:01:07.401Z,6.90
2023-06-12T20:03:34.063Z,7.40
2023-06-12T20:06:00.515Z,6.47
2023-06-12T20:08:27.020Z,6.63
2023-06-12T20:10:53.526Z,8.45
2023-06-12T20:13:20.004Z,6.90
2023-06-12T20:15:46.661Z,7.18
2023-06-12T20:18:13.550Z,7.95
2023-06-12T20:20:40.022Z,6.82
2023-06-12T20:23:06.428Z,6.97
2023-06-12T20:25:33.564Z,6.32
2023-06-12T20:28:00.922Z,6.72
2023-06-12T20:30:27.407Z,7.30
2023-06-12T20:32:54.034Z,7.47
2023-06-12T20:35:20.612Z,7.65
2023-06-12T20:37:47.189Z,6.40
2023-06-12T20:40:13.912Z,7.63
2023-06-12T20:42:40.530Z,7.63
2023-06-12T20:45:07.578Z,6.65
2023-06-12T20:47:34.044Z,7.10
2023-06-12T20:50:00.736Z,8.02
2023-06-12T20:52:27.295Z,7.13
2023-06-12T20:54:53.748Z,7.13
2023-06-12T20:57:20.277Z,7.28
2023-06-12T20:59:46.636Z,7.32
2023-06-12T21:02:13.330Z,7.60
2023-06-12T21:04:39.826Z,7.57
2023-06-12T21:07:06.313Z,7.65
2023-06-12T21:09:34.013Z,7.82
2023-06-12T21:12:00.595Z,7.72
2023-06-12T21:14:27.186Z,8.38
2023-06-12T21:16:53.674Z,7.35
2023-06-12T21:19:20.089Z,8.10
2023-06-12T21:21:46.599Z,8.65
2023-06-12T21:24:13.129Z,7.75
2023-06-12T21:26:39.777Z,8.30
2023-06-12T21:29:06.376Z,7.57
2023-06-12T21:31:32.832Z,8.68
2023-06-12T21:34:02.089Z,8.73
2023-06-12T21:36:31.053Z,9.10
2023-06-12T21:41:24.901Z,7.50
2023-06-12T21:43:51.709Z,7.60
2023-06-12T21:46:18.484Z,8.85
2023-06-12T21:48:44.909Z,8.32
2023-06-12T21:51:11.351Z,8.68
2023-06-12T21:53:37.745Z,7.80
2023-06-12T21:56:04.760Z,7.75
2023-06-12T21:58:32.020Z,10.75
2023-06-12T22:01:00.887Z,8.88
2023-06-12T22:03:28.493Z,9.05
2023-06-12T22:05:58.785Z,8.77
2023-06-12T22:08:25.935Z,9.23
2023-06-12T22:10:52.990Z,7.82
2023-06-12T22:13:20.343Z,8.85
2023-06-12T22:15:48.896Z,7.85
2023-06-12T22:18:16.093Z,8.45
2023-06-12T22:20:43.407Z,7.93
2023-06-12T22:23:12.689Z,7.88
2023-06-12T22:25:39.125Z,8.52
2023-06-12T22:28:05.658Z,7.75
2023-06-12T22:30:40.725Z,8.48
2023-06-12T22:33:14.690Z,7.40
2023-06-12T22:35:41.408Z,8.02
2023-06-12T22:38:09.735Z,8.98
2023-06-12T22:40:37.480Z,7.60
2023-06-12T22:43:04.482Z,8.05
2023-06-12T22:45:31.945Z,10.60
2023-06-12T22:48:00.420Z,8.38
2023-06-12T22:50:27.088Z,7.72
2023-06-12T22:52:56.129Z,7.35
2023-06-12T22:55:22.771Z,7.50
2023-06-12T22:57:49.135Z,7.28
2023-06-12T23:00:17.611Z,8.27
2023-06-12T23:02:44.075Z,6.03
2023-06-12T23:05:15.604Z,7.30
2023-06-12T23:07:43.689Z,7.10
2023-06-12T23:10:13.914Z,6.55
2023-06-12T23:12:40.448Z,7.65
2023-06-12T23:15:07.424Z,5.95
2023-06-12T23:17:39.070Z,6.72
2023-06-12T23:20:07.348Z,5.68
2023-06-12T23:22:34.460Z,7.38
2023-06-12T23:25:02.735Z,6.18
2023-06-12T23:27:29.259Z,5.97
2023-06-12T23:29:58.359Z,7.13
2023-06-12T23:32:27.041Z,6.45
2023-06-12T23:34:53.677Z,5.80
2023-06-12T23:37:21.893Z,10.00
2023-06-12T23:39:48.280Z,6.20
2023-06-12T23:42:18.389Z,5.93
2023-06-12T23:44:44.820Z,7.72
2023-06-12T23:47:11.384Z,6.88
2023-06-12T23:49:37.774Z,6.35
2023-06-12T23:52:04.402Z,6.47
2023-06-12T23:54:30.824Z,6.30
2023-06-12T23:56:57.424Z,5.72
2023-06-12T23:59:23.785Z,7.05
